Blue Mounds, Wisconsin
Current Conditions -  °F | °C
As of 6:15 AM on Monday 20 Oct 2014 (Local Time) from KC29 Reporting Station
Scattered Clouds Scattered Clouds  
Wind Chill: 46°   Ceiling: Unl
Heat Index: 49°   Visibility: 10mi
Dew Point: 44°   Wind: 8mph
Humidity: 81%   Direction: 300°WNW
Pressure: 29.82"   Gusts: NA
Location:  43.02°N, 89.83°W
Report Text: KC29 201115Z AUTO 30007KT 10SM SCT050 10/07 A2982 RMK AO1 T00970065
Loading
Personal Weather Stations






























Interactive Weather Map
Tropical Storm Tracking
New forecast layout! Learn more

10-Day Weather Forecast

Advertisements
Track Severe Weather on mobile